Tinian, MP (96952)

2:09 PM ChST on July 29, 2016 (GMT +1000)
Red Cross-Airport | | Change Station

Elev 215 ft 15.13 °N, 145.72 °E | Updated 8 minutes ago

Scattered Clouds
Scattered Clouds
88.0 °F
Feels Like 97 °F
N
7.0
Wind Variable Wind from ENE
Gusts 13.0 mph

Today
High -- | Low -- °F
--% Chance of Precip.
Yesterday
High -- | Low -- °F
Precip. -- in
Pressure 29.86 in
Visibility 10.0 miles
Clouds Scattered Clouds 3400 ft
Heat Index 97 °F
Dew Point 74 °F
Humidity 63%
Rainfall Not available.
Snow Depth Not available.
5:59 AM 6:48 PM
Waning Crescent, 26% visible
METAR PGSN 290354Z 14007KT 10SM SCT034 31/24 A2979 RMK AO2 SLP110 T03110239
Pressure 29.86 in
Visibility 10.0 miles
Clouds Scattered Clouds 3400 ft
Heat Index 97 °F
Dew Point 74 °F
Humidity 63%
Rainfall Not available.
Snow Depth Not available.
5:59 AM 6:48 PM
Waning Crescent, 26% visible
METAR PGSN 290354Z 14007KT 10SM SCT034 31/24 A2979 RMK AO2 SLP110 T03110239

10-Day Weather Forecast

Almanac

Astronomy

Jul. 29, 2016 Rise Set
Actual Time
Civil Twilight
Nautical Twilight
Astronomical Twilight
Moon
Length of Visible Light
Length of Day
Tomorrow will be .
, % of the Moon is Illuminated

Today's Extremes

State Highs State Lows

Community

WunderPhotos

Upload Photos

1,928,292 photos uploaded!

WunderBlog® & News

Nearby

Air Quality

  Air Quality AQ Index Pollutant
Not available.

Snow Depth

Station Depth Elevation

Earthquake Activity

City Distance Mag. Time & Date
Minimum magnitude displayed is 2.5.

Coastal Water Temperatures

Place Temperature

Stations

Nearby Weather Stations

Station Location Temp. Windchill Dew Point Humidity Wind Precip. Elev Updated Type
                   

Watches & Warnings

There are currently no watches in effect.